Time;durP1;ratioP1;P1;durP2;ratioP2;P2;SDS_P1;SDS_P2;PMS_P1;PMS_P2;Temp;Humidity;BMP_temperature;BMP_pressure;BME280_temperature;BME280_humidity;BME280_pressure;Samples;Min_cycle;Max_cycle;Signal;HPM_P1;HPM_P2
2023/04/06 00:01:37;;;;;;;15.80;12.27;;;;;;;;;;5016208;28;20189;-67
2023/04/06 00:04:03;;;;;;;15.10;11.73;;;;;;;;;;5034810;28;20190;-67
2023/04/06 00:06:29;;;;;;;18.37;11.83;;;;;;;;;;5037667;28;20183;-67
2023/04/06 00:08:56;;;;;;;15.77;12.00;;;;;;;;;;5037795;28;20218;-67
2023/04/06 00:11:22;;;;;;;15.73;12.07;;;;;;;;;;5039103;28;20190;-67
2023/04/06 00:13:48;;;;;;;15.17;11.73;;;;;;;;;;5049418;28;20265;-67
2023/04/06 00:16:14;;;;;;;20.03;12.60;;;;;;;;;;5047748;28;20175;-67
2023/04/06 00:18:40;;;;;;;17.43;11.90;;;;;;;;;;5029536;28;20226;-67
2023/04/06 00:21:06;;;;;;;20.60;13.37;;;;;;;;;;5046812;28;20183;-67
2023/04/06 00:23:32;;;;;;;21.73;15.53;;;;;;;;;;5047073;28;20218;-67
2023/04/06 00:25:58;;;;;;;25.03;16.13;;;;;;;;;;5040363;28;20257;-67
2023/04/06 00:28:29;;;;;;;25.43;17.57;;;;;;;;;;5019053;28;20733;-67
2023/04/06 00:30:55;;;;;;;24.73;16.70;;;;;;;;;;5019278;28;20179;-67
2023/04/06 00:33:22;;;;;;;24.67;16.53;;;;;;;;;;5019090;28;20207;-67
2023/04/06 00:35:48;;;;;;;23.00;15.30;;;;;;;;;;5019016;28;20179;-67
2023/04/06 00:38:15;;;;;;;22.37;15.80;;;;;;;;;;5036913;28;20245;-67
2023/04/06 00:40:41;;;;;;;23.73;16.03;;;;;;;;;;5036783;28;20210;-67
2023/04/06 00:43:08;;;;;;;21.13;15.63;;;;;;;;;;5018890;28;20175;-67
2023/04/06 00:45:34;;;;;;;18.33;14.83;;;;;;;;;;5036672;28;20532;-67
2023/04/06 00:48:01;;;;;;;21.77;14.33;;;;;;;;;;5018717;28;20215;-67
2023/04/06 00:50:27;;;;;;;19.87;12.73;;;;;;;;;;5019208;28;20191;-67
2023/04/06 00:52:54;;;;;;;16.63;12.90;;;;;;;;;;5018801;28;20210;-67
2023/04/06 00:55:20;;;;;;;16.40;11.97;;;;;;;;;;5036609;28;20177;-66
2023/04/06 00:57:46;;;;;;;17.27;12.00;;;;;;;;;;5036405;28;20179;-67
2023/04/06 01:00:13;;;;;;;14.20;11.50;;;;;;;;;;5036352;28;20661;-67
2023/04/06 01:02:39;;;;;;;16.53;11.83;;;;;;;;;;5036613;28;20262;-67
2023/04/06 01:05:05;;;;;;;18.20;12.50;;;;;;;;;;5018572;28;20453;-66
2023/04/06 01:07:31;;;;;;;18.13;11.33;;;;;;;;;;5050219;28;20181;-69
2023/04/06 01:09:58;;;;;;;18.10;12.97;;;;;;;;;;5031088;28;20242;-67
2023/04/06 01:12:24;;;;;;;17.80;12.53;;;;;;;;;;5036216;28;20195;-67
2023/04/06 01:14:50;;;;;;;17.67;12.57;;;;;;;;;;5018663;28;20858;-67
2023/04/06 01:17:16;;;;;;;20.20;12.33;;;;;;;;;;5036096;28;20411;-67
2023/04/06 01:19:44;;;;;;;16.93;12.70;;;;;;;;;;5036235;28;20208;-67
2023/04/06 01:22:13;;;;;;;18.83;12.33;;;;;;;;;;5018235;28;20426;-67
2023/04/06 01:24:39;;;;;;;17.10;11.97;;;;;;;;;;5036033;28;20410;-66
2023/04/06 01:27:05;;;;;;;15.47;12.43;;;;;;;;;;5036187;28;20270;-66
2023/04/06 01:29:31;;;;;;;16.43;11.90;;;;;;;;;;5034869;28;20203;-66
2023/04/06 01:31:57;;;;;;;14.77;11.40;;;;;;;;;;5051151;28;20207;-67
2023/04/06 01:34:23;;;;;;;17.17;12.23;;;;;;;;;;5035836;28;20211;-67
2023/04/06 01:36:49;;;;;;;16.63;11.40;;;;;;;;;;5017901;28;20186;-66
2023/04/06 01:39:15;;;;;;;17.67;11.63;;;;;;;;;;5017639;28;20249;-66
2023/04/06 01:41:41;;;;;;;19.30;11.83;;;;;;;;;;5035812;28;20190;-66
2023/04/06 01:44:07;;;;;;;16.47;11.63;;;;;;;;;;5035426;28;20175;-66
2023/04/06 01:46:33;;;;;;;15.13;11.63;;;;;;;;;;5017846;28;20179;-66
2023/04/06 01:48:59;;;;;;;17.70;12.33;;;;;;;;;;5036017;28;20201;-66
2023/04/06 01:51:25;;;;;;;16.83;11.43;;;;;;;;;;5035457;28;20181;-66
2023/04/06 01:53:51;;;;;;;20.20;11.57;;;;;;;;;;5017535;28;20278;-66
2023/04/06 01:56:17;;;;;;;15.43;11.50;;;;;;;;;;5035822;28;20207;-66
2023/04/06 01:58:43;;;;;;;15.73;11.40;;;;;;;;;;5017798;28;20253;-66
2023/04/06 02:01:09;;;;;;;20.07;10.73;;;;;;;;;;5035270;28;20206;-66
2023/04/06 02:03:35;;;;;;;15.73;11.87;;;;;;;;;;5035695;28;20179;-66
2023/04/06 02:06:01;;;;;;;13.80;11.23;;;;;;;;;;5035135;28;20179;-66
2023/04/06 02:08:27;;;;;;;14.13;11.47;;;;;;;;;;5035059;28;20215;-66
2023/04/06 02:10:53;;;;;;;16.37;12.23;;;;;;;;;;5035286;28;20167;-66
2023/04/06 02:13:19;;;;;;;15.20;11.63;;;;;;;;;;5017396;28;20239;-66
2023/04/06 02:15:45;;;;;;;13.93;11.87;;;;;;;;;;5034956;28;20172;-67
2023/04/06 02:18:11;;;;;;;17.03;12.03;;;;;;;;;;5034879;28;20589;-67
2023/04/06 02:20:37;;;;;;;17.60;12.13;;;;;;;;;;5035025;28;20190;-67
2023/04/06 02:23:03;;;;;;;17.60;12.80;;;;;;;;;;5017068;28;20222;-67
2023/04/06 02:25:28;;;;;;;18.60;12.07;;;;;;;;;;5035250;28;20724;-67
2023/04/06 02:27:55;;;;;;;18.97;12.30;;;;;;;;;;5035068;28;20187;-69
2023/04/06 02:30:21;;;;;;;16.43;12.27;;;;;;;;;;5036936;28;20265;-66
2023/04/06 02:32:46;;;;;;;16.43;12.03;;;;;;;;;;5019248;28;20253;-66
2023/04/06 02:35:12;;;;;;;18.37;12.70;;;;;;;;;;5036508;28;20183;-66
2023/04/06 02:37:38;;;;;;;22.30;13.37;;;;;;;;;;5037485;28;20225;-66
2023/04/06 02:40:06;;;;;;;20.83;13.33;;;;;;;;;;5020392;28;20205;-66
2023/04/06 02:42:32;;;;;;;17.53;13.60;;;;;;;;;;5037195;28;20178;-66
2023/04/06 02:44:58;;;;;;;22.17;13.10;;;;;;;;;;5034806;28;20228;-66
2023/04/06 02:47:24;;;;;;;24.27;12.97;;;;;;;;;;5034933;28;20179;-66
2023/04/06 02:49:50;;;;;;;21.17;12.93;;;;;;;;;;5034378;28;20229;-66
2023/04/06 02:52:17;;;;;;;17.23;12.77;;;;;;;;;;5016689;28;20207;-66
2023/04/06 02:54:43;;;;;;;19.70;12.10;;;;;;;;;;5016850;28;20556;-66
2023/04/06 02:57:09;;;;;;;18.70;12.87;;;;;;;;;;5016717;28;20278;-66
2023/04/06 02:59:35;;;;;;;17.27;12.90;;;;;;;;;;5016170;28;20199;-66
2023/04/06 03:02:01;;;;;;;16.63;12.90;;;;;;;;;;5034016;28;20183;-66
2023/04/06 03:04:27;;;;;;;15.60;12.70;;;;;;;;;;5034183;28;20179;-67
2023/04/06 03:06:55;;;;;;;20.10;13.37;;;;;;;;;;5034111;28;20183;-66
2023/04/06 03:09:21;;;;;;;16.50;13.53;;;;;;;;;;5016293;28;20702;-67
2023/04/06 03:11:47;;;;;;;17.20;13.57;;;;;;;;;;5016182;28;20211;-66
2023/04/06 03:14:13;;;;;;;26.47;12.67;;;;;;;;;;5033820;28;20189;-66
2023/04/06 03:16:39;;;;;;;17.03;12.43;;;;;;;;;;5016193;28;20234;-67
2023/04/06 03:19:05;;;;;;;16.83;14.23;;;;;;;;;;5016101;28;20291;-66
2023/04/06 03:21:31;;;;;;;20.50;14.50;;;;;;;;;;5033726;28;20442;-66
2023/04/06 03:23:57;;;;;;;18.80;14.07;;;;;;;;;;5033570;28;20633;-66
2023/04/06 03:26:23;;;;;;;19.57;14.13;;;;;;;;;;5033994;28;20747;-66
2023/04/06 03:28:49;;;;;;;21.90;14.00;;;;;;;;;;5015999;28;20657;-66
2023/04/06 03:31:15;;;;;;;19.20;14.13;;;;;;;;;;5033663;28;20202;-66
2023/04/06 03:33:41;;;;;;;19.60;14.23;;;;;;;;;;5033478;28;20261;-67
2023/04/06 03:36:07;;;;;;;16.97;13.97;;;;;;;;;;5033352;28;20179;-66
2023/04/06 03:38:33;;;;;;;19.37;15.13;;;;;;;;;;5032989;28;20657;-66
2023/04/06 03:40:59;;;;;;;19.57;15.47;;;;;;;;;;5033491;28;20175;-66
2023/04/06 03:43:25;;;;;;;19.50;15.10;;;;;;;;;;5015849;28;20183;-66
2023/04/06 03:45:51;;;;;;;19.83;13.53;;;;;;;;;;5015708;28;20193;-67
2023/04/06 03:48:17;;;;;;;18.63;14.17;;;;;;;;;;5033280;28;20726;-67
2023/04/06 03:50:43;;;;;;;20.30;13.90;;;;;;;;;;5033483;28;20695;-67
2023/04/06 03:53:09;;;;;;;18.73;14.83;;;;;;;;;;5040968;28;20287;-68
2023/04/06 03:55:35;;;;;;;17.17;14.07;;;;;;;;;;5050755;28;20182;-66
2023/04/06 03:58:01;;;;;;;17.33;13.87;;;;;;;;;;5016621;28;20183;-66
2023/04/06 04:00:27;;;;;;;18.67;14.27;;;;;;;;;;5034786;28;20182;-66
2023/04/06 04:02:53;;;;;;;20.20;14.07;;;;;;;;;;5034109;28;20207;-66
2023/04/06 04:05:19;;;;;;;17.83;13.33;;;;;;;;;;5033328;28;20195;-67
2023/04/06 04:07:45;;;;;;;16.67;13.27;;;;;;;;;;5033721;28;20175;-66
2023/04/06 04:10:11;;;;;;;17.73;13.50;;;;;;;;;;5017196;28;20214;-66
2023/04/06 04:12:37;;;;;;;17.73;13.73;;;;;;;;;;5034991;28;20203;-66
2023/04/06 04:15:03;;;;;;;17.73;13.10;;;;;;;;;;5017294;28;20182;-66
2023/04/06 04:17:29;;;;;;;16.90;13.53;;;;;;;;;;5035076;28;20178;-67
2023/04/06 04:19:55;;;;;;;17.77;13.63;;;;;;;;;;5034972;28;20437;-67
2023/04/06 04:22:21;;;;;;;18.17;13.57;;;;;;;;;;5034972;28;20409;-66
2023/04/06 04:24:47;;;;;;;16.53;13.07;;;;;;;;;;5034062;28;20258;-67
2023/04/06 04:27:13;;;;;;;17.77;12.87;;;;;;;;;;5034784;28;20183;-67
2023/04/06 04:29:39;;;;;;;18.40;14.10;;;;;;;;;;5034752;28;20202;-67
2023/04/06 04:32:05;;;;;;;19.47;14.10;;;;;;;;;;5015839;28;20203;-66
2023/04/06 04:34:31;;;;;;;15.87;12.63;;;;;;;;;;5018910;28;20509;-67
2023/04/06 04:36:57;;;;;;;17.27;13.67;;;;;;;;;;5035373;28;20176;-67
2023/04/06 04:39:23;;;;;;;18.30;14.00;;;;;;;;;;5035060;28;20483;-66
2023/04/06 04:41:49;;;;;;;20.17;13.07;;;;;;;;;;5034084;28;20179;-67
2023/04/06 04:44:15;;;;;;;17.97;14.47;;;;;;;;;;5033106;28;20633;-66
2023/04/06 04:46:41;;;;;;;17.80;13.50;;;;;;;;;;5033549;28;20517;-67
2023/04/06 04:49:07;;;;;;;19.63;14.50;;;;;;;;;;5015856;28;20257;-67
2023/04/06 04:51:33;;;;;;;20.27;13.83;;;;;;;;;;5035357;28;20417;-66
2023/04/06 04:53:59;;;;;;;21.53;15.00;;;;;;;;;;5037157;28;20182;-67
2023/04/06 04:56:27;;;;;;;16.60;12.93;;;;;;;;;;5037576;28;20175;-66
2023/04/06 04:58:53;;;;;;;21.33;14.03;;;;;;;;;;5036740;28;20621;-67
2023/04/06 05:01:19;;;;;;;20.20;13.37;;;;;;;;;;5036711;28;20183;-66
2023/04/06 05:03:45;;;;;;;14.07;11.77;;;;;;;;;;5036722;28;20182;-68
2023/04/06 05:06:11;;;;;;;15.40;12.30;;;;;;;;;;5019193;28;20237;-67
2023/04/06 05:08:37;;;;;;;15.57;12.10;;;;;;;;;;5036660;28;20465;-66
2023/04/06 05:11:04;;;;;;;15.00;12.27;;;;;;;;;;5037180;28;20214;-67
2023/04/06 05:13:30;;;;;;;15.80;12.43;;;;;;;;;;5036530;28;20203;-67
2023/04/06 05:15:56;;;;;;;18.73;12.97;;;;;;;;;;5037102;28;20653;-67
2023/04/06 05:18:22;;;;;;;14.17;11.60;;;;;;;;;;5036685;28;20191;-67
2023/04/06 05:20:49;;;;;;;15.83;11.10;;;;;;;;;;5018704;28;20179;-67
2023/04/06 05:23:15;;;;;;;16.27;11.63;;;;;;;;;;5018473;28;20229;-66
2023/04/06 05:25:41;;;;;;;15.10;11.93;;;;;;;;;;5036616;28;20187;-67
2023/04/06 05:28:07;;;;;;;15.90;11.03;;;;;;;;;;5038543;28;20274;-69
2023/04/06 05:30:35;;;;;;;16.40;12.37;;;;;;;;;;5055535;28;20182;-67
2023/04/06 05:33:01;;;;;;;16.67;11.27;;;;;;;;;;5054614;28;20206;-68
2023/04/06 05:35:27;;;;;;;15.90;11.57;;;;;;;;;;5032295;28;20243;-66
2023/04/06 05:37:53;;;;;;;19.00;11.57;;;;;;;;;;5054883;28;20198;-67
2023/04/06 05:40:19;;;;;;;17.93;11.50;;;;;;;;;;5078094;22;20752;-72
2023/04/06 05:42:45;;;;;;;15.33;11.27;;;;;;;;;;5056080;28;20170;-70
2023/04/06 05:45:16;;;;;;;13.87;10.40;;;;;;;;;;5055601;28;20174;-71
2023/04/06 05:47:42;;;;;;;13.70;9.37;;;;;;;;;;5037501;28;20159;-72
2023/04/06 05:50:08;;;;;;;12.33;8.53;;;;;;;;;;5055284;28;20571;-72
2023/04/06 05:52:34;;;;;;;14.43;10.60;;;;;;;;;;5055030;28;20202;-71
2023/04/06 05:55:00;;;;;;;12.43;9.40;;;;;;;;;;5037197;28;20174;-72
2023/04/06 05:57:26;;;;;;;12.43;8.87;;;;;;;;;;5055085;28;20175;-72
2023/04/06 05:59:52;;;;;;;13.20;9.60;;;;;;;;;;5054932;28;20194;-72
2023/04/06 06:02:18;;;;;;;15.07;9.70;;;;;;;;;;5054854;28;20209;-72
2023/04/06 06:04:44;;;;;;;14.10;9.50;;;;;;;;;;5036989;28;20232;-72
2023/04/06 06:07:10;;;;;;;16.53;9.93;;;;;;;;;;5054832;28;20179;-72
2023/04/06 06:09:36;;;;;;;16.73;9.23;;;;;;;;;;5054653;28;20574;-72
2023/04/06 06:12:02;;;;;;;12.93;9.80;;;;;;;;;;5054631;28;20627;-72
2023/04/06 06:14:28;;;;;;;11.97;9.17;;;;;;;;;;5054930;28;20545;-72
2023/04/06 06:16:54;;;;;;;15.10;9.07;;;;;;;;;;5054763;28;20258;-71
2023/04/06 06:19:20;;;;;;;13.50;9.83;;;;;;;;;;5054934;28;20249;-72
2023/04/06 06:21:46;;;;;;;16.70;10.13;;;;;;;;;;5036694;28;20182;-71
2023/04/06 06:24:12;;;;;;;14.17;9.10;;;;;;;;;;5036901;28;20268;-72
2023/04/06 06:26:39;;;;;;;15.53;8.93;;;;;;;;;;5054270;28;20229;-71
2023/04/06 06:29:05;;;;;;;17.53;9.00;;;;;;;;;;5036481;28;20721;-70
2023/04/06 06:31:31;;;;;;;13.93;9.57;;;;;;;;;;5036395;28;20186;-71
2023/04/06 06:33:57;;;;;;;12.67;9.20;;;;;;;;;;5037226;28;20224;-70
2023/04/06 06:36:23;;;;;;;14.30;9.03;;;;;;;;;;5054538;28;20175;-71
2023/04/06 06:38:49;;;;;;;11.53;9.13;;;;;;;;;;5054355;28;20193;-70
2023/04/06 06:41:16;;;;;;;12.03;8.47;;;;;;;;;;5053874;28;20249;-70
2023/04/06 06:43:42;;;;;;;13.77;9.03;;;;;;;;;;5054134;28;20236;-70
2023/04/06 06:46:07;;;;;;;12.13;8.83;;;;;;;;;;5036166;28;20182;-70
2023/04/06 06:48:33;;;;;;;15.47;9.90;;;;;;;;;;5036059;28;20178;-70
2023/04/06 06:51:00;;;;;;;13.70;9.47;;;;;;;;;;5035958;28;20202;-70
2023/04/06 06:53:26;;;;;;;14.73;8.73;;;;;;;;;;5035859;28;20651;-70
2023/04/06 06:55:52;;;;;;;11.77;8.17;;;;;;;;;;5054079;28;20207;-70
2023/04/06 06:58:21;;;;;;;18.27;9.17;;;;;;;;;;5053723;28;20552;-70
2023/04/06 07:00:47;;;;;;;14.50;9.13;;;;;;;;;;5036122;28;20576;-70
2023/04/06 07:03:13;;;;;;;11.37;8.23;;;;;;;;;;5053799;28;20645;-70
2023/04/06 07:05:39;;;;;;;15.70;8.77;;;;;;;;;;5053963;28;20186;-70
2023/04/06 07:08:05;;;;;;;16.50;10.63;;;;;;;;;;5054215;28;20194;-70
2023/04/06 07:10:31;;;;;;;17.73;11.80;;;;;;;;;;5036926;28;20247;-70
2023/04/06 07:12:57;;;;;;;15.77;11.37;;;;;;;;;;5035714;28;20202;-70
2023/04/06 07:15:23;;;;;;;14.47;10.20;;;;;;;;;;5053288;28;20525;-70
2023/04/06 07:17:49;;;;;;;18.33;11.10;;;;;;;;;;5053665;28;20202;-70
2023/04/06 07:20:15;;;;;;;13.77;9.47;;;;;;;;;;5053489;28;20194;-70
2023/04/06 07:22:44;;;;;;;8.73;7.73;;;;;;;;;;5053443;28;20183;-70
2023/04/06 07:25:10;;;;;;;12.27;9.27;;;;;;;;;;5036314;28;20605;-70
2023/04/06 07:27:36;;;;;;;10.87;8.83;;;;;;;;;;5053302;28;20249;-70
2023/04/06 07:30:02;;;;;;;12.60;8.30;;;;;;;;;;5053190;28;20230;-70
2023/04/06 07:32:28;;;;;;;12.27;8.73;;;;;;;;;;5035415;28;20691;-70
2023/04/06 07:34:56;;;;;;;9.67;8.47;;;;;;;;;;5035865;28;20198;-70
2023/04/06 07:37:22;;;;;;;11.20;8.50;;;;;;;;;;5035340;28;20265;-70
2023/04/06 07:39:48;;;;;;;11.13;8.67;;;;;;;;;;5035414;28;20612;-69
2023/04/06 07:42:14;;;;;;;9.63;8.30;;;;;;;;;;5053382;28;20182;-70
2023/04/06 07:44:40;;;;;;;11.43;8.20;;;;;;;;;;5053569;28;20590;-70
2023/04/06 07:47:06;;;;;;;12.00;8.73;;;;;;;;;;5053575;28;20621;-70
2023/04/06 07:49:32;;;;;;;11.77;8.97;;;;;;;;;;5053085;28;20561;-70
2023/04/06 07:51:58;;;;;;;13.50;8.93;;;;;;;;;;5052949;28;20198;-70
2023/04/06 07:54:24;;;;;;;13.83;8.40;;;;;;;;;;5035301;28;20698;-70
2023/04/06 07:56:50;;;;;;;17.43;9.33;;;;;;;;;;5052962;28;20250;-71
2023/04/06 07:59:16;;;;;;;13.27;9.80;;;;;;;;;;5035117;28;20231;-71
2023/04/06 08:01:42;;;;;;;14.57;9.40;;;;;;;;;;5035129;28;20178;-70
2023/04/06 08:04:08;;;;;;;14.50;9.73;;;;;;;;;;5053280;28;20181;-71
2023/04/06 08:06:34;;;;;;;18.10;10.07;;;;;;;;;;5053030;28;20209;-70
2023/04/06 08:09:00;;;;;;;13.47;9.53;;;;;;;;;;5035043;28;20178;-70
2023/04/06 08:11:26;;;;;;;17.57;11.33;;;;;;;;;;5052802;28;20254;-70
2023/04/06 08:13:52;;;;;;;14.23;9.80;;;;;;;;;;5052809;28;20177;-70
2023/04/06 08:16:19;;;;;;;15.10;10.00;;;;;;;;;;5035185;28;20182;-71
2023/04/06 08:18:45;;;;;;;14.43;9.40;;;;;;;;;;5052895;28;20175;-70
2023/04/06 08:21:11;;;;;;;15.40;10.13;;;;;;;;;;5052797;28;20205;-70
2023/04/06 08:23:37;;;;;;;13.77;10.13;;;;;;;;;;5035090;28;20183;-70
2023/04/06 08:26:03;;;;;;;11.70;9.23;;;;;;;;;;5037498;28;20190;-70
2023/04/06 08:28:29;;;;;;;12.73;9.07;;;;;;;;;;5038838;28;20190;-70
2023/04/06 08:30:55;;;;;;;12.60;8.90;;;;;;;;;;5038935;28;20194;-70
2023/04/06 08:33:21;;;;;;;16.17;9.93;;;;;;;;;;5038645;28;20216;-70
2023/04/06 08:35:46;;;;;;;11.63;9.77;;;;;;;;;;5056665;28;20177;-70
2023/04/06 08:38:12;;;;;;;14.33;10.60;;;;;;;;;;5038455;28;20269;-73
2023/04/06 08:40:39;;;;;;;13.23;9.67;;;;;;;;;;5056486;28;20213;-70
2023/04/06 08:43:08;;;;;;;14.83;11.13;;;;;;;;;;5038451;28;20194;-70
2023/04/06 08:45:34;;;;;;;13.13;9.30;;;;;;;;;;5038691;28;20214;-70
2023/04/06 08:48:01;;;;;;;16.20;10.50;;;;;;;;;;5056335;28;20182;-70
2023/04/06 08:50:28;;;;;;;15.67;10.37;;;;;;;;;;5056231;28;20574;-70
2023/04/06 08:52:54;;;;;;;19.13;11.33;;;;;;;;;;5056024;28;20234;-70
2023/04/06 08:55:20;;;;;;;21.67;11.90;;;;;;;;;;5038348;28;20659;-70
2023/04/06 08:57:47;;;;;;;16.07;11.00;;;;;;;;;;5038173;28;20633;-70
2023/04/06 09:00:15;;;;;;;15.47;10.77;;;;;;;;;;5055859;28;20222;-70
2023/04/06 09:02:43;;;;;;;16.27;11.83;;;;;;;;;;5038121;28;20715;-70
2023/04/06 09:05:10;;;;;;;16.30;11.90;;;;;;;;;;5055904;28;20178;-72
2023/04/06 09:07:36;;;;;;;16.40;11.10;;;;;;;;;;5055988;28;20658;-70
2023/04/06 09:10:03;;;;;;;18.67;11.63;;;;;;;;;;5038044;28;20202;-70
2023/04/06 09:12:30;;;;;;;20.03;12.80;;;;;;;;;;5038174;28;20710;-70
2023/04/06 09:14:56;;;;;;;25.60;14.47;;;;;;;;;;5037757;28;20175;-70
2023/04/06 09:17:23;;;;;;;25.37;15.00;;;;;;;;;;5038085;28;20178;-72
2023/04/06 09:19:49;;;;;;;27.13;15.53;;;;;;;;;;5037705;28;20285;-70
2023/04/06 09:22:15;;;;;;;26.17;14.47;;;;;;;;;;5055559;28;20257;-70
2023/04/06 09:24:45;;;;;;;22.93;14.83;;;;;;;;;;5058620;28;20682;-70
2023/04/06 09:27:11;;;;;;;23.23;14.80;;;;;;;;;;5055938;28;20225;-70
2023/04/06 09:29:37;;;;;;;22.33;15.03;;;;;;;;;;5037757;28;20241;-73
2023/04/06 09:32:07;;;;;;;23.23;14.97;;;;;;;;;;5055413;28;20202;-69
2023/04/06 09:34:34;;;;;;;22.63;14.80;;;;;;;;;;5037463;28;20261;-70
2023/04/06 09:37:00;;;;;;;20.13;14.87;;;;;;;;;;5036691;28;20175;-69
2023/04/06 09:39:26;;;;;;;26.90;15.40;;;;;;;;;;5055262;28;20214;-71
2023/04/06 09:41:52;;;;;;;28.97;16.93;;;;;;;;;;5055253;28;20761;-70
2023/04/06 09:44:19;;;;;;;27.47;15.47;;;;;;;;;;5055599;28;20182;-70
2023/04/06 09:46:46;;;;;;;22.57;14.70;;;;;;;;;;5055390;28;20182;-70
2023/04/06 09:49:13;;;;;;;19.00;13.57;;;;;;;;;;5055339;28;20181;-71
2023/04/06 09:51:54;;;;;;;20.00;13.90;;;;;;;;;;5055605;28;20550;-70
2023/04/06 09:54:21;;;;;;;22.63;14.17;;;;;;;;;;5055691;28;20566;-71
2023/04/06 09:56:51;;;;;;;23.60;15.93;;;;;;;;;;5055400;28;20179;-70
2023/04/06 09:59:25;;;;;;;21.43;13.77;;;;;;;;;;5055450;28;20170;-70
2023/04/06 10:01:52;;;;;;;22.17;14.43;;;;;;;;;;5037316;28;20182;-70
2023/04/06 10:04:36;;;;;;;22.30;14.83;;;;;;;;;;5039134;28;20679;-70
2023/04/06 10:07:03;;;;;;;29.70;15.10;;;;;;;;;;5061082;28;20189;-70
2023/04/06 10:09:35;;;;;;;19.83;13.30;;;;;;;;;;5042682;28;20203;-70
2023/04/06 10:12:02;;;;;;;20.50;14.27;;;;;;;;;;5057361;28;20194;-70
2023/04/06 10:14:29;;;;;;;19.50;13.90;;;;;;;;;;5037369;28;20201;-70
2023/04/06 10:16:55;;;;;;;19.40;13.70;;;;;;;;;;5037680;28;20175;-70
2023/04/06 10:19:23;;;;;;;21.53;13.20;;;;;;;;;;5055211;28;20189;-70
2023/04/06 10:21:51;;;;;;;20.60;13.97;;;;;;;;;;5054584;28;20222;-70
2023/04/06 10:24:17;;;;;;;19.77;13.60;;;;;;;;;;5055382;28;20179;-70
2023/04/06 10:26:43;;;;;;;17.80;13.10;;;;;;;;;;5036682;28;20182;-70
2023/04/06 10:29:10;;;;;;;20.67;13.67;;;;;;;;;;5036792;28;20181;-70
2023/04/06 10:31:40;;;;;;;21.53;14.63;;;;;;;;;;5036251;28;20553;-70
2023/04/06 10:34:06;;;;;;;22.20;15.20;;;;;;;;;;5036427;28;20228;-70
2023/04/06 10:36:34;;;;;;;20.07;14.17;;;;;;;;;;5036710;28;20232;-70
2023/04/06 10:39:00;;;;;;;21.93;15.27;;;;;;;;;;5037257;28;20209;-71
2023/04/06 10:41:42;;;;;;;22.17;15.57;;;;;;;;;;5055272;28;20206;-71
2023/04/06 10:44:09;;;;;;;23.20;14.60;;;;;;;;;;5055408;28;20185;-71
2023/04/06 10:46:35;;;;;;;22.73;15.53;;;;;;;;;;5054261;28;20175;-70
2023/04/06 10:49:11;;;;;;;25.57;16.03;;;;;;;;;;5053244;28;20254;-71
2023/04/06 10:51:38;;;;;;;20.53;14.10;;;;;;;;;;5053960;28;20167;-69
2023/04/06 10:54:05;;;;;;;18.47;14.63;;;;;;;;;;5036114;28;20178;-71
2023/04/06 10:56:35;;;;;;;20.67;15.33;;;;;;;;;;5053785;28;20258;-71
2023/04/06 10:59:01;;;;;;;22.37;15.20;;;;;;;;;;5035883;28;20655;-71
2023/04/06 11:01:27;;;;;;;21.03;14.43;;;;;;;;;;5053593;28;20194;-70
2023/04/06 11:03:55;;;;;;;22.13;15.33;;;;;;;;;;5054682;28;20182;-71
2023/04/06 11:06:22;;;;;;;21.80;15.63;;;;;;;;;;5053967;28;20182;-70
2023/04/06 11:08:48;;;;;;;22.47;15.33;;;;;;;;;;5035749;28;20268;-71
2023/04/06 11:11:17;;;;;;;22.83;14.60;;;;;;;;;;5035524;28;20206;-71
2023/04/06 11:13:45;;;;;;;18.67;14.20;;;;;;;;;;5035607;28;20564;-71
2023/04/06 11:16:18;;;;;;;20.77;15.03;;;;;;;;;;5053808;28;20183;-70
2023/04/06 11:18:48;;;;;;;24.70;14.43;;;;;;;;;;5053502;28;20210;-71
2023/04/06 11:21:14;;;;;;;22.27;16.30;;;;;;;;;;5053610;28;20205;-71
2023/04/06 11:23:40;;;;;;;20.23;15.20;;;;;;;;;;5053340;28;20552;-70
2023/04/06 11:26:10;;;;;;;20.23;15.47;;;;;;;;;;5053439;28;20187;-70
2023/04/06 11:28:36;;;;;;;19.83;15.80;;;;;;;;;;5035595;28;20554;-70
2023/04/06 11:31:02;;;;;;;22.47;16.30;;;;;;;;;;5053473;28;20202;-70
2023/04/06 11:33:28;;;;;;;24.10;16.67;;;;;;;;;;5035482;28;20202;-70
2023/04/06 11:35:57;;;;;;;23.13;15.70;;;;;;;;;;5035638;28;20654;-70
2023/04/06 11:38:23;;;;;;;26.20;16.63;;;;;;;;;;5035579;28;20178;-70
2023/04/06 11:40:53;;;;;;;19.63;15.57;;;;;;;;;;5053336;28;20284;-70
2023/04/06 11:43:26;;;;;;;20.33;14.93;;;;;;;;;;5053271;28;20186;-70
2023/04/06 11:46:00;;;;;;;21.27;15.53;;;;;;;;;;5057676;22;20231;-67
2023/04/06 11:48:26;;;;;;;18.93;15.53;;;;;;;;;;5033764;28;20245;-66
2023/04/06 11:50:55;;;;;;;25.50;16.67;;;;;;;;;;5015448;28;20239;-65
2023/04/06 11:53:21;;;;;;;24.83;16.50;;;;;;;;;;5015593;28;20588;-65
2023/04/06 11:55:47;;;;;;;24.90;14.83;;;;;;;;;;5015650;28;20282;-65
2023/04/06 11:58:13;;;;;;;28.50;15.90;;;;;;;;;;5033499;28;20175;-67
2023/04/06 12:00:44;;;;;;;23.97;16.47;;;;;;;;;;5035272;28;20174;-67
2023/04/06 12:03:10;;;;;;;21.90;15.63;;;;;;;;;;5037644;28;20644;-64
2023/04/06 12:05:36;;;;;;;20.40;14.93;;;;;;;;;;5019185;28;20206;-68
2023/04/06 12:08:02;;;;;;;19.40;16.20;;;;;;;;;;5019500;28;20191;-67
2023/04/06 12:10:28;;;;;;;19.53;14.90;;;;;;;;;;5037120;28;20213;-67
2023/04/06 12:12:54;;;;;;;20.23;14.97;;;;;;;;;;5036748;28;20203;-67
2023/04/06 12:15:20;;;;;;;19.97;15.27;;;;;;;;;;5036992;28;20199;-68
2023/04/06 12:17:46;;;;;;;21.93;14.27;;;;;;;;;;5037581;28;20324;-65
2023/04/06 12:20:13;;;;;;;21.43;15.07;;;;;;;;;;5036900;28;20186;-66
2023/04/06 12:22:39;;;;;;;23.53;15.83;;;;;;;;;;5019538;28;20232;-65
2023/04/06 12:25:06;;;;;;;19.27;14.30;;;;;;;;;;5019080;28;20203;-68
2023/04/06 12:27:32;;;;;;;23.80;15.43;;;;;;;;;;5036728;28;20186;-65
2023/04/06 12:29:58;;;;;;;22.00;14.90;;;;;;;;;;5036767;28;20201;-64
2023/04/06 12:32:24;;;;;;;23.10;14.90;;;;;;;;;;5018970;28;20199;-67
2023/04/06 12:34:51;;;;;;;21.17;14.20;;;;;;;;;;5018830;28;20203;-67
2023/04/06 12:37:17;;;;;;;20.00;13.43;;;;;;;;;;5036662;28;20682;-65
2023/04/06 12:39:44;;;;;;;14.97;12.47;;;;;;;;;;5018917;28;20179;-66
2023/04/06 12:42:12;;;;;;;13.33;11.17;;;;;;;;;;5018782;28;20641;-66
2023/04/06 12:44:38;;;;;;;12.53;10.57;;;;;;;;;;5036143;28;20175;-66
2023/04/06 12:47:04;;;;;;;12.77;10.30;;;;;;;;;;5036911;28;20512;-66
2023/04/06 12:49:31;;;;;;;12.77;10.37;;;;;;;;;;5018652;28;20744;-66
2023/04/06 12:51:57;;;;;;;13.53;11.13;;;;;;;;;;5036323;28;20195;-66
2023/04/06 12:54:25;;;;;;;16.60;10.77;;;;;;;;;;5036725;28;20171;-65
2023/04/06 12:56:52;;;;;;;12.70;10.40;;;;;;;;;;5036342;28;20174;-66
2023/04/06 12:59:17;;;;;;;14.20;9.70;;;;;;;;;;5036901;28;20664;-66
2023/04/06 13:01:44;;;;;;;12.07;9.13;;;;;;;;;;5036893;28;20179;-66
2023/04/06 13:04:10;;;;;;;13.37;8.20;;;;;;;;;;5036079;28;20178;-67
2023/04/06 13:06:36;;;;;;;12.17;8.53;;;;;;;;;;5036019;28;20577;-66
2023/04/06 13:09:02;;;;;;;10.50;8.47;;;;;;;;;;5018074;28;20343;-66
2023/04/06 13:11:28;;;;;;;11.23;8.70;;;;;;;;;;5034920;28;20715;-66
2023/04/06 13:13:55;;;;;;;14.80;8.83;;;;;;;;;;5035871;28;20195;-66
2023/04/06 13:16:21;;;;;;;10.00;8.30;;;;;;;;;;5035783;28;20246;-66
2023/04/06 13:18:47;;;;;;;13.77;8.50;;;;;;;;;;5018067;28;20179;-66
2023/04/06 13:21:16;;;;;;;10.73;7.47;;;;;;;;;;5036400;28;20232;-66
2023/04/06 13:23:42;;;;;;;8.97;6.87;;;;;;;;;;5035917;28;20179;-66
2023/04/06 13:26:09;;;;;;;9.03;7.63;;;;;;;;;;5035797;28;20226;-66
2023/04/06 13:28:37;;;;;;;8.33;6.70;;;;;;;;;;5035950;28;20194;-66
2023/04/06 13:31:03;;;;;;;11.50;7.77;;;;;;;;;;5036184;28;20207;-65
2023/04/06 13:33:30;;;;;;;10.83;7.30;;;;;;;;;;5018334;28;20296;-66
2023/04/06 13:35:56;;;;;;;9.83;7.30;;;;;;;;;;5036204;28;20271;-66
2023/04/06 13:38:24;;;;;;;8.67;7.37;;;;;;;;;;5018533;28;20290;-65
2023/04/06 13:40:50;;;;;;;14.80;8.03;;;;;;;;;;5035948;28;20266;-67
2023/04/06 13:43:19;;;;;;;10.30;7.63;;;;;;;;;;5017554;28;20661;-68
2023/04/06 13:45:49;;;;;;;10.33;8.10;;;;;;;;;;5035521;28;20214;-67
2023/04/06 13:48:15;;;;;;;10.93;9.03;;;;;;;;;;5035100;28;20225;-68
2023/04/06 13:50:41;;;;;;;11.77;8.47;;;;;;;;;;5035377;28;20179;-68
2023/04/06 13:53:06;;;;;;;13.40;9.33;;;;;;;;;;5035211;28;20211;-68
2023/04/06 13:55:32;;;;;;;10.53;9.07;;;;;;;;;;5017261;28;20199;-67
2023/04/06 13:57:58;;;;;;;13.43;8.83;;;;;;;;;;5035049;28;20179;-68
2023/04/06 14:00:25;;;;;;;12.87;8.80;;;;;;;;;;5034923;28;20176;-68
2023/04/06 14:02:50;;;;;;;10.27;9.00;;;;;;;;;;5034927;28;20186;-68
2023/04/06 14:05:17;;;;;;;10.10;8.60;;;;;;;;;;5016831;28;20572;-67
2023/04/06 14:07:43;;;;;;;9.67;8.07;;;;;;;;;;5034637;28;20187;-68
2023/04/06 14:10:13;;;;;;;11.47;8.67;;;;;;;;;;5016872;28;20594;-66
2023/04/06 14:12:40;;;;;;;14.00;8.80;;;;;;;;;;5034496;28;20195;-66
2023/04/06 14:15:06;;;;;;;9.77;8.77;;;;;;;;;;5034493;28;20203;-67
2023/04/06 14:17:32;;;;;;;9.93;8.90;;;;;;;;;;5034497;28;20732;-67